sensor_id;sensor_type;location;lat;lon;timestamp;P1;durP1;ratioP1;P2;durP2;ratioP2
22439;SDS011;11387;51.612;7.210;2023-08-06T00:00:35;19.25;;;13.25;;
22439;SDS011;11387;51.612;7.210;2023-08-06T00:03:03;21.85;;;13.85;;
22439;SDS011;11387;51.612;7.210;2023-08-06T00:05:33;20.73;;;12.90;;
22439;SDS011;11387;51.612;7.210;2023-08-06T00:08:01;17.65;;;13.50;;
22439;SDS011;11387;51.612;7.210;2023-08-06T00:10:30;19.88;;;12.85;;
22439;SDS011;11387;51.612;7.210;2023-08-06T00:12:59;22.30;;;12.77;;
22439;SDS011;11387;51.612;7.210;2023-08-06T00:15:28;15.98;;;11.70;;
22439;SDS011;11387;51.612;7.210;2023-08-06T00:17:57;19.00;;;11.75;;
22439;SDS011;11387;51.612;7.210;2023-08-06T00:20:26;17.05;;;13.23;;
22439;SDS011;11387;51.612;7.210;2023-08-06T00:22:54;16.08;;;10.05;;
22439;SDS011;11387;51.612;7.210;2023-08-06T00:25:23;19.23;;;10.73;;
22439;SDS011;11387;51.612;7.210;2023-08-06T00:27:51;13.73;;;10.40;;
22439;SDS011;11387;51.612;7.210;2023-08-06T00:30:20;13.80;;;10.20;;
22439;SDS011;11387;51.612;7.210;2023-08-06T00:32:50;13.70;;;10.15;;
22439;SDS011;11387;51.612;7.210;2023-08-06T00:35:18;14.40;;;11.07;;
22439;SDS011;11387;51.612;7.210;2023-08-06T00:37:47;14.73;;;11.52;;
22439;SDS011;11387;51.612;7.210;2023-08-06T00:40:15;21.17;;;12.50;;
22439;SDS011;11387;51.612;7.210;2023-08-06T00:42:44;22.50;;;12.70;;
22439;SDS011;11387;51.612;7.210;2023-08-06T00:45:13;18.55;;;12.07;;
22439;SDS011;11387;51.612;7.210;2023-08-06T00:47:41;15.20;;;12.10;;
22439;SDS011;11387;51.612;7.210;2023-08-06T00:50:12;13.90;;;11.23;;
22439;SDS011;11387;51.612;7.210;2023-08-06T00:52:41;18.48;;;12.75;;
22439;SDS011;11387;51.612;7.210;2023-08-06T00:55:09;13.63;;;10.70;;
22439;SDS011;11387;51.612;7.210;2023-08-06T00:57:38;14.00;;;9.90;;
22439;SDS011;11387;51.612;7.210;2023-08-06T01:00:07;15.68;;;11.57;;
22439;SDS011;11387;51.612;7.210;2023-08-06T01:02:36;22.20;;;11.98;;
22439;SDS011;11387;51.612;7.210;2023-08-06T01:05:05;18.75;;;12.00;;
22439;SDS011;11387;51.612;7.210;2023-08-06T01:07:40;19.90;;;10.77;;
22439;SDS011;11387;51.612;7.210;2023-08-06T01:10:19;16.17;;;10.35;;
22439;SDS011;11387;51.612;7.210;2023-08-06T01:12:58;13.65;;;10.52;;
22439;SDS011;11387;51.612;7.210;2023-08-06T01:15:56;16.63;;;10.15;;
22439;SDS011;11387;51.612;7.210;2023-08-06T01:18:28;12.43;;;9.18;;
22439;SDS011;11387;51.612;7.210;2023-08-06T01:21:01;14.98;;;9.55;;
22439;SDS011;11387;51.612;7.210;2023-08-06T01:23:29;17.50;;;9.38;;
22439;SDS011;11387;51.612;7.210;2023-08-06T01:26:00;13.48;;;9.20;;
22439;SDS011;11387;51.612;7.210;2023-08-06T01:28:35;13.63;;;8.38;;
22439;SDS011;11387;51.612;7.210;2023-08-06T01:31:14;15.50;;;8.93;;
22439;SDS011;11387;51.612;7.210;2023-08-06T01:33:45;15.00;;;8.68;;
22439;SDS011;11387;51.612;7.210;2023-08-06T01:36:17;11.48;;;8.02;;
22439;SDS011;11387;51.612;7.210;2023-08-06T01:38:48;11.18;;;7.72;;
22439;SDS011;11387;51.612;7.210;2023-08-06T01:41:16;16.40;;;8.32;;
22439;SDS011;11387;51.612;7.210;2023-08-06T01:43:45;9.68;;;7.13;;
22439;SDS011;11387;51.612;7.210;2023-08-06T01:46:14;13.90;;;7.45;;
22439;SDS011;11387;51.612;7.210;2023-08-06T01:48:42;14.15;;;7.05;;
22439;SDS011;11387;51.612;7.210;2023-08-06T01:51:11;8.85;;;6.68;;
22439;SDS011;11387;51.612;7.210;2023-08-06T01:53:41;14.07;;;7.03;;
22439;SDS011;11387;51.612;7.210;2023-08-06T01:56:09;13.77;;;6.97;;
22439;SDS011;11387;51.612;7.210;2023-08-06T01:58:38;10.52;;;6.65;;
22439;SDS011;11387;51.612;7.210;2023-08-06T02:01:06;7.72;;;5.93;;
22439;SDS011;11387;51.612;7.210;2023-08-06T02:03:35;12.05;;;6.28;;
22439;SDS011;11387;51.612;7.210;2023-08-06T02:06:04;10.77;;;5.75;;
22439;SDS011;11387;51.612;7.210;2023-08-06T02:08:32;10.55;;;5.72;;
22439;SDS011;11387;51.612;7.210;2023-08-06T02:11:02;12.30;;;6.53;;
22439;SDS011;11387;51.612;7.210;2023-08-06T02:13:31;11.27;;;5.80;;
22439;SDS011;11387;51.612;7.210;2023-08-06T02:15:59;11.93;;;6.70;;
22439;SDS011;11387;51.612;7.210;2023-08-06T02:18:28;14.80;;;7.28;;
22439;SDS011;11387;51.612;7.210;2023-08-06T02:20:57;8.35;;;5.78;;
22439;SDS011;11387;51.612;7.210;2023-08-06T02:23:26;15.05;;;6.03;;
22439;SDS011;11387;51.612;7.210;2023-08-06T02:25:58;9.60;;;6.88;;
22439;SDS011;11387;51.612;7.210;2023-08-06T02:28:29;12.60;;;6.22;;
22439;SDS011;11387;51.612;7.210;2023-08-06T02:30:58;13.80;;;6.55;;
22439;SDS011;11387;51.612;7.210;2023-08-06T02:33:27;10.27;;;6.18;;
22439;SDS011;11387;51.612;7.210;2023-08-06T02:35:58;11.18;;;6.20;;
22439;SDS011;11387;51.612;7.210;2023-08-06T02:38:28;15.60;;;6.45;;
22439;SDS011;11387;51.612;7.210;2023-08-06T02:40:57;13.50;;;6.55;;
22439;SDS011;11387;51.612;7.210;2023-08-06T02:43:25;8.70;;;6.60;;
22439;SDS011;11387;51.612;7.210;2023-08-06T02:45:57;15.27;;;6.63;;
22439;SDS011;11387;51.612;7.210;2023-08-06T02:48:26;9.57;;;6.25;;
22439;SDS011;11387;51.612;7.210;2023-08-06T02:50:56;14.70;;;7.57;;
22439;SDS011;11387;51.612;7.210;2023-08-06T02:53:26;14.07;;;5.90;;
22439;SDS011;11387;51.612;7.210;2023-08-06T02:55:54;10.35;;;6.03;;
22439;SDS011;11387;51.612;7.210;2023-08-06T02:58:23;14.75;;;6.90;;
22439;SDS011;11387;51.612;7.210;2023-08-06T03:01:03;8.95;;;6.15;;
22439;SDS011;11387;51.612;7.210;2023-08-06T03:03:34;10.30;;;5.82;;
22439;SDS011;11387;51.612;7.210;2023-08-06T03:06:03;7.78;;;5.75;;
22439;SDS011;11387;51.612;7.210;2023-08-06T03:08:31;8.13;;;5.80;;
22439;SDS011;11387;51.612;7.210;2023-08-06T03:11:00;9.55;;;6.20;;
22439;SDS011;11387;51.612;7.210;2023-08-06T03:13:28;10.63;;;6.43;;
22439;SDS011;11387;51.612;7.210;2023-08-06T03:15:58;15.98;;;6.57;;
22439;SDS011;11387;51.612;7.210;2023-08-06T03:18:29;16.25;;;7.07;;
22439;SDS011;11387;51.612;7.210;2023-08-06T03:20:57;8.02;;;6.05;;
22439;SDS011;11387;51.612;7.210;2023-08-06T03:23:26;8.30;;;7.10;;
22439;SDS011;11387;51.612;7.210;2023-08-06T03:25:54;13.82;;;6.20;;
22439;SDS011;11387;51.612;7.210;2023-08-06T03:28:23;11.73;;;6.70;;
22439;SDS011;11387;51.612;7.210;2023-08-06T03:30:58;12.98;;;6.75;;
22439;SDS011;11387;51.612;7.210;2023-08-06T03:33:43;10.13;;;6.78;;
22439;SDS011;11387;51.612;7.210;2023-08-06T03:36:12;14.18;;;7.20;;
22439;SDS011;11387;51.612;7.210;2023-08-06T03:38:40;11.88;;;7.30;;
22439;SDS011;11387;51.612;7.210;2023-08-06T03:41:09;13.13;;;6.78;;
22439;SDS011;11387;51.612;7.210;2023-08-06T03:43:37;10.13;;;7.00;;
22439;SDS011;11387;51.612;7.210;2023-08-06T03:46:06;11.02;;;7.45;;
22439;SDS011;11387;51.612;7.210;2023-08-06T03:48:35;11.93;;;6.97;;
22439;SDS011;11387;51.612;7.210;2023-08-06T03:51:04;11.63;;;7.20;;
22439;SDS011;11387;51.612;7.210;2023-08-06T03:53:33;20.58;;;7.68;;
22439;SDS011;11387;51.612;7.210;2023-08-06T03:56:02;19.70;;;7.88;;
22439;SDS011;11387;51.612;7.210;2023-08-06T03:58:31;10.45;;;7.28;;
22439;SDS011;11387;51.612;7.210;2023-08-06T04:00:59;12.32;;;7.85;;
22439;SDS011;11387;51.612;7.210;2023-08-06T04:03:53;9.27;;;7.00;;
22439;SDS011;11387;51.612;7.210;2023-08-06T04:06:23;10.52;;;7.20;;
22439;SDS011;11387;51.612;7.210;2023-08-06T04:08:52;12.63;;;7.10;;
22439;SDS011;11387;51.612;7.210;2023-08-06T04:11:20;17.10;;;7.45;;
22439;SDS011;11387;51.612;7.210;2023-08-06T04:13:49;13.15;;;7.60;;
22439;SDS011;11387;51.612;7.210;2023-08-06T04:16:17;10.80;;;8.32;;
22439;SDS011;11387;51.612;7.210;2023-08-06T04:18:46;13.73;;;7.10;;
22439;SDS011;11387;51.612;7.210;2023-08-06T04:21:15;9.70;;;7.15;;
22439;SDS011;11387;51.612;7.210;2023-08-06T04:23:45;10.40;;;7.30;;
22439;SDS011;11387;51.612;7.210;2023-08-06T04:26:14;10.38;;;6.28;;
22439;SDS011;11387;51.612;7.210;2023-08-06T04:28:42;12.15;;;7.72;;
22439;SDS011;11387;51.612;7.210;2023-08-06T04:31:11;13.85;;;8.05;;
22439;SDS011;11387;51.612;7.210;2023-08-06T04:33:40;18.50;;;7.95;;
22439;SDS011;11387;51.612;7.210;2023-08-06T04:36:11;11.57;;;7.72;;
22439;SDS011;11387;51.612;7.210;2023-08-06T04:38:40;11.70;;;8.90;;
22439;SDS011;11387;51.612;7.210;2023-08-06T04:41:13;15.85;;;7.45;;
22439;SDS011;11387;51.612;7.210;2023-08-06T04:43:42;11.63;;;7.80;;
22439;SDS011;11387;51.612;7.210;2023-08-06T04:46:10;20.85;;;7.78;;
22439;SDS011;11387;51.612;7.210;2023-08-06T04:48:39;12.48;;;7.72;;
22439;SDS011;11387;51.612;7.210;2023-08-06T04:51:13;15.23;;;8.02;;
22439;SDS011;11387;51.612;7.210;2023-08-06T04:53:41;15.07;;;8.68;;
22439;SDS011;11387;51.612;7.210;2023-08-06T04:56:10;14.98;;;8.00;;
22439;SDS011;11387;51.612;7.210;2023-08-06T04:58:40;11.23;;;7.57;;
22439;SDS011;11387;51.612;7.210;2023-08-06T05:01:09;13.50;;;7.65;;
22439;SDS011;11387;51.612;7.210;2023-08-06T05:03:37;11.60;;;8.13;;
22439;SDS011;11387;51.612;7.210;2023-08-06T05:06:06;11.35;;;7.90;;
22439;SDS011;11387;51.612;7.210;2023-08-06T05:08:34;11.13;;;7.45;;
22439;SDS011;11387;51.612;7.210;2023-08-06T05:11:03;10.35;;;7.75;;
22439;SDS011;11387;51.612;7.210;2023-08-06T05:13:32;16.88;;;7.75;;
22439;SDS011;11387;51.612;7.210;2023-08-06T05:16:02;11.35;;;6.85;;
22439;SDS011;11387;51.612;7.210;2023-08-06T05:18:31;10.32;;;6.88;;
22439;SDS011;11387;51.612;7.210;2023-08-06T05:21:05;10.77;;;7.03;;
22439;SDS011;11387;51.612;7.210;2023-08-06T05:23:33;9.75;;;6.95;;
22439;SDS011;11387;51.612;7.210;2023-08-06T05:26:02;7.55;;;6.32;;
22439;SDS011;11387;51.612;7.210;2023-08-06T05:28:30;9.88;;;6.03;;
22439;SDS011;11387;51.612;7.210;2023-08-06T05:31:03;11.23;;;6.60;;
22439;SDS011;11387;51.612;7.210;2023-08-06T05:33:32;8.18;;;6.47;;
22439;SDS011;11387;51.612;7.210;2023-08-06T05:36:01;14.38;;;6.30;;
22439;SDS011;11387;51.612;7.210;2023-08-06T05:38:30;7.85;;;5.70;;
22439;SDS011;11387;51.612;7.210;2023-08-06T05:40:58;11.63;;;6.68;;
22439;SDS011;11387;51.612;7.210;2023-08-06T05:43:27;9.50;;;6.18;;
22439;SDS011;11387;51.612;7.210;2023-08-06T05:45:56;8.23;;;5.50;;
22439;SDS011;11387;51.612;7.210;2023-08-06T05:48:26;8.63;;;5.68;;
22439;SDS011;11387;51.612;7.210;2023-08-06T05:50:55;9.88;;;5.30;;
22439;SDS011;11387;51.612;7.210;2023-08-06T05:53:23;7.03;;;4.65;;
22439;SDS011;11387;51.612;7.210;2023-08-06T05:55:52;9.20;;;4.63;;
22439;SDS011;11387;51.612;7.210;2023-08-06T05:58:22;8.85;;;4.45;;
22439;SDS011;11387;51.612;7.210;2023-08-06T06:00:53;9.70;;;4.53;;
22439;SDS011;11387;51.612;7.210;2023-08-06T06:03:22;13.73;;;6.05;;
22439;SDS011;11387;51.612;7.210;2023-08-06T06:05:52;11.38;;;4.50;;
22439;SDS011;11387;51.612;7.210;2023-08-06T06:08:21;10.68;;;5.18;;
22439;SDS011;11387;51.612;7.210;2023-08-06T06:10:50;15.23;;;5.00;;
22439;SDS011;11387;51.612;7.210;2023-08-06T06:13:21;11.43;;;5.78;;
22439;SDS011;11387;51.612;7.210;2023-08-06T06:15:49;12.43;;;5.40;;
22439;SDS011;11387;51.612;7.210;2023-08-06T06:18:18;7.97;;;4.68;;
22439;SDS011;11387;51.612;7.210;2023-08-06T06:20:46;7.32;;;4.50;;
22439;SDS011;11387;51.612;7.210;2023-08-06T06:23:19;12.35;;;4.35;;
22439;SDS011;11387;51.612;7.210;2023-08-06T06:25:48;6.95;;;4.18;;
22439;SDS011;11387;51.612;7.210;2023-08-06T06:28:18;6.45;;;3.95;;
22439;SDS011;11387;51.612;7.210;2023-08-06T06:30:47;5.32;;;3.70;;
22439;SDS011;11387;51.612;7.210;2023-08-06T06:33:16;6.82;;;4.20;;
22439;SDS011;11387;51.612;7.210;2023-08-06T06:35:44;5.35;;;3.65;;
22439;SDS011;11387;51.612;7.210;2023-08-06T06:38:13;10.50;;;3.80;;
22439;SDS011;11387;51.612;7.210;2023-08-06T06:40:43;6.70;;;3.33;;
22439;SDS011;11387;51.612;7.210;2023-08-06T06:43:11;12.32;;;3.83;;
22439;SDS011;11387;51.612;7.210;2023-08-06T06:45:40;4.78;;;2.88;;
22439;SDS011;11387;51.612;7.210;2023-08-06T06:48:12;10.85;;;3.17;;
22439;SDS011;11387;51.612;7.210;2023-08-06T06:50:46;5.25;;;3.20;;
22439;SDS011;11387;51.612;7.210;2023-08-06T06:53:15;10.23;;;2.95;;
22439;SDS011;11387;51.612;7.210;2023-08-06T06:55:50;11.50;;;3.38;;
22439;SDS011;11387;51.612;7.210;2023-08-06T06:58:19;5.85;;;2.80;;
22439;SDS011;11387;51.612;7.210;2023-08-06T07:00:48;5.63;;;2.80;;
22439;SDS011;11387;51.612;7.210;2023-08-06T07:03:16;6.03;;;3.15;;
22439;SDS011;11387;51.612;7.210;2023-08-06T07:05:45;9.18;;;2.88;;
22439;SDS011;11387;51.612;7.210;2023-08-06T07:08:17;4.82;;;2.45;;
22439;SDS011;11387;51.612;7.210;2023-08-06T07:10:46;3.75;;;2.30;;
22439;SDS011;11387;51.612;7.210;2023-08-06T07:13:15;4.22;;;2.20;;
22439;SDS011;11387;51.612;7.210;2023-08-06T07:15:47;4.28;;;2.38;;
22439;SDS011;11387;51.612;7.210;2023-08-06T07:18:15;6.68;;;2.92;;
22439;SDS011;11387;51.612;7.210;2023-08-06T07:20:47;6.75;;;2.50;;
22439;SDS011;11387;51.612;7.210;2023-08-06T07:23:17;3.88;;;2.38;;
22439;SDS011;11387;51.612;7.210;2023-08-06T07:25:46;6.63;;;2.50;;
22439;SDS011;11387;51.612;7.210;2023-08-06T07:28:16;7.55;;;2.40;;
22439;SDS011;11387;51.612;7.210;2023-08-06T07:30:45;8.52;;;2.75;;
22439;SDS011;11387;51.612;7.210;2023-08-06T07:33:21;4.63;;;2.13;;
22439;SDS011;11387;51.612;7.210;2023-08-06T07:35:49;4.57;;;2.38;;
22439;SDS011;11387;51.612;7.210;2023-08-06T07:38:18;5.82;;;2.17;;
22439;SDS011;11387;51.612;7.210;2023-08-06T07:40:46;6.13;;;2.42;;
22439;SDS011;11387;51.612;7.210;2023-08-06T07:43:16;8.68;;;2.78;;
22439;SDS011;11387;51.612;7.210;2023-08-06T07:45:45;5.47;;;2.22;;
22439;SDS011;11387;51.612;7.210;2023-08-06T07:48:14;4.80;;;2.03;;
22439;SDS011;11387;51.612;7.210;2023-08-06T07:50:42;3.10;;;2.00;;
22439;SDS011;11387;51.612;7.210;2023-08-06T07:53:17;6.28;;;2.38;;
22439;SDS011;11387;51.612;7.210;2023-08-06T07:55:47;10.93;;;4.53;;
22439;SDS011;11387;51.612;7.210;2023-08-06T07:58:19;7.50;;;2.10;;
22439;SDS011;11387;51.612;7.210;2023-08-06T08:00:48;4.35;;;1.98;;
22439;SDS011;11387;51.612;7.210;2023-08-06T08:03:17;6.40;;;2.97;;
22439;SDS011;11387;51.612;7.210;2023-08-06T08:05:47;4.95;;;2.15;;
22439;SDS011;11387;51.612;7.210;2023-08-06T08:08:15;3.25;;;1.85;;
22439;SDS011;11387;51.612;7.210;2023-08-06T08:10:45;4.38;;;2.10;;
22439;SDS011;11387;51.612;7.210;2023-08-06T08:13:15;3.60;;;1.80;;
22439;SDS011;11387;51.612;7.210;2023-08-06T08:15:45;5.72;;;2.30;;
22439;SDS011;11387;51.612;7.210;2023-08-06T08:18:14;3.78;;;2.10;;
22439;SDS011;11387;51.612;7.210;2023-08-06T08:20:42;3.85;;;2.10;;
22439;SDS011;11387;51.612;7.210;2023-08-06T08:23:11;6.82;;;2.50;;
22439;SDS011;11387;51.612;7.210;2023-08-06T08:25:40;5.15;;;2.22;;
22439;SDS011;11387;51.612;7.210;2023-08-06T08:28:10;6.20;;;3.00;;
22439;SDS011;11387;51.612;7.210;2023-08-06T08:30:40;4.68;;;2.42;;
22439;SDS011;11387;51.612;7.210;2023-08-06T08:33:10;4.30;;;2.08;;
22439;SDS011;11387;51.612;7.210;2023-08-06T08:35:40;6.82;;;2.72;;
22439;SDS011;11387;51.612;7.210;2023-08-06T08:38:09;7.88;;;3.17;;
22439;SDS011;11387;51.612;7.210;2023-08-06T08:40:38;8.75;;;3.00;;
22439;SDS011;11387;51.612;7.210;2023-08-06T08:43:12;7.85;;;3.30;;
22439;SDS011;11387;51.612;7.210;2023-08-06T08:45:43;5.03;;;3.20;;
22439;SDS011;11387;51.612;7.210;2023-08-06T08:48:20;7.20;;;3.88;;
22439;SDS011;11387;51.612;7.210;2023-08-06T08:50:49;7.07;;;3.65;;
22439;SDS011;11387;51.612;7.210;2023-08-06T08:53:19;5.85;;;3.55;;
22439;SDS011;11387;51.612;7.210;2023-08-06T08:55:50;10.25;;;3.70;;
22439;SDS011;11387;51.612;7.210;2023-08-06T08:58:19;5.43;;;3.33;;
22439;SDS011;11387;51.612;7.210;2023-08-06T09:00:48;8.25;;;4.38;;
22439;SDS011;11387;51.612;7.210;2023-08-06T09:03:17;7.70;;;3.60;;
22439;SDS011;11387;51.612;7.210;2023-08-06T09:05:48;6.65;;;4.38;;
22439;SDS011;11387;51.612;7.210;2023-08-06T09:08:23;7.50;;;4.65;;
22439;SDS011;11387;51.612;7.210;2023-08-06T09:10:55;11.63;;;4.50;;
22439;SDS011;11387;51.612;7.210;2023-08-06T09:13:25;8.55;;;4.75;;
22439;SDS011;11387;51.612;7.210;2023-08-06T09:15:54;10.38;;;5.60;;
22439;SDS011;11387;51.612;7.210;2023-08-06T09:18:25;10.88;;;4.72;;
22439;SDS011;11387;51.612;7.210;2023-08-06T09:23:46;6.95;;;3.83;;
22439;SDS011;11387;51.612;7.210;2023-08-06T09:26:32;8.32;;;4.60;;
22439;SDS011;11387;51.612;7.210;2023-08-06T09:29:05;5.80;;;4.00;;
22439;SDS011;11387;51.612;7.210;2023-08-06T09:31:40;7.22;;;4.55;;
22439;SDS011;11387;51.612;7.210;2023-08-06T09:34:10;7.43;;;4.60;;
22439;SDS011;11387;51.612;7.210;2023-08-06T09:36:42;10.55;;;7.20;;
22439;SDS011;11387;51.612;7.210;2023-08-06T09:39:12;14.45;;;8.32;;
22439;SDS011;11387;51.612;7.210;2023-08-06T09:41:41;6.55;;;5.65;;
22439;SDS011;11387;51.612;7.210;2023-08-06T09:44:14;8.93;;;6.20;;
22439;SDS011;11387;51.612;7.210;2023-08-06T09:46:46;6.00;;;5.38;;
22439;SDS011;11387;51.612;7.210;2023-08-06T09:49:17;8.07;;;5.72;;
22439;SDS011;11387;51.612;7.210;2023-08-06T09:51:51;7.05;;;4.43;;
22439;SDS011;11387;51.612;7.210;2023-08-06T09:54:23;9.32;;;4.57;;
22439;SDS011;11387;51.612;7.210;2023-08-06T09:56:54;4.80;;;4.20;;
22439;SDS011;11387;51.612;7.210;2023-08-06T09:59:24;6.40;;;4.53;;
22439;SDS011;11387;51.612;7.210;2023-08-06T10:01:53;4.55;;;4.07;;
22439;SDS011;11387;51.612;7.210;2023-08-06T10:04:23;7.90;;;4.32;;
22439;SDS011;11387;51.612;7.210;2023-08-06T10:07:05;5.07;;;3.60;;
22439;SDS011;11387;51.612;7.210;2023-08-06T10:09:34;7.40;;;3.90;;
22439;SDS011;11387;51.612;7.210;2023-08-06T10:12:04;7.18;;;3.30;;
22439;SDS011;11387;51.612;7.210;2023-08-06T10:14:34;4.90;;;3.35;;
22439;SDS011;11387;51.612;7.210;2023-08-06T10:17:05;6.28;;;2.85;;
22439;SDS011;11387;51.612;7.210;2023-08-06T10:19:34;4.85;;;2.72;;
22439;SDS011;11387;51.612;7.210;2023-08-06T10:22:11;6.82;;;3.10;;
22439;SDS011;11387;51.612;7.210;2023-08-06T10:24:48;4.03;;;2.95;;
22439;SDS011;11387;51.612;7.210;2023-08-06T10:27:27;4.10;;;2.60;;
22439;SDS011;11387;51.612;7.210;2023-08-06T10:32:52;6.80;;;2.92;;
22439;SDS011;11387;51.612;7.210;2023-08-06T10:35:34;4.00;;;2.90;;
22439;SDS011;11387;51.612;7.210;2023-08-06T10:38:05;7.10;;;2.88;;
22439;SDS011;11387;51.612;7.210;2023-08-06T10:40:36;3.75;;;2.45;;
22439;SDS011;11387;51.612;7.210;2023-08-06T10:43:05;4.93;;;2.58;;
22439;SDS011;11387;51.612;7.210;2023-08-06T10:46:01;6.57;;;2.40;;
22439;SDS011;11387;51.612;7.210;2023-08-06T10:48:33;4.22;;;2.50;;
22439;SDS011;11387;51.612;7.210;2023-08-06T10:51:03;7.00;;;3.75;;
22439;SDS011;11387;51.612;7.210;2023-08-06T10:53:37;9.93;;;3.42;;
22439;SDS011;11387;51.612;7.210;2023-08-06T10:56:11;5.22;;;3.08;;
22439;SDS011;11387;51.612;7.210;2023-08-06T10:58:41;5.75;;;2.75;;
22439;SDS011;11387;51.612;7.210;2023-08-06T11:01:10;5.82;;;2.88;;
22439;SDS011;11387;51.612;7.210;2023-08-06T11:03:39;5.55;;;2.95;;
22439;SDS011;11387;51.612;7.210;2023-08-06T11:06:09;5.28;;;3.15;;
22439;SDS011;11387;51.612;7.210;2023-08-06T11:08:40;6.70;;;2.70;;
22439;SDS011;11387;51.612;7.210;2023-08-06T11:11:15;6.90;;;3.17;;
22439;SDS011;11387;51.612;7.210;2023-08-06T11:13:45;5.43;;;2.80;;
22439;SDS011;11387;51.612;7.210;2023-08-06T11:16:15;8.00;;;4.63;;
22439;SDS011;11387;51.612;7.210;2023-08-06T11:18:46;6.35;;;4.15;;
22439;SDS011;11387;51.612;7.210;2023-08-06T11:21:15;8.77;;;3.40;;
22439;SDS011;11387;51.612;7.210;2023-08-06T11:23:49;4.47;;;2.80;;
22439;SDS011;11387;51.612;7.210;2023-08-06T11:26:18;6.72;;;3.08;;
22439;SDS011;11387;51.612;7.210;2023-08-06T11:28:47;6.75;;;3.20;;
22439;SDS011;11387;51.612;7.210;2023-08-06T11:31:19;7.18;;;3.78;;
22439;SDS011;11387;51.612;7.210;2023-08-06T11:33:48;13.13;;;4.18;;
22439;SDS011;11387;51.612;7.210;2023-08-06T11:36:28;10.95;;;4.88;;
22439;SDS011;11387;51.612;7.210;2023-08-06T11:38:59;6.03;;;4.18;;
22439;SDS011;11387;51.612;7.210;2023-08-06T11:41:29;6.18;;;4.47;;
22439;SDS011;11387;51.612;7.210;2023-08-06T11:43:58;8.18;;;4.80;;
22439;SDS011;11387;51.612;7.210;2023-08-06T11:46:27;7.55;;;5.20;;
22439;SDS011;11387;51.612;7.210;2023-08-06T11:48:57;11.52;;;5.07;;
22439;SDS011;11387;51.612;7.210;2023-08-06T11:51:27;6.93;;;5.40;;
22439;SDS011;11387;51.612;7.210;2023-08-06T11:53:56;7.20;;;5.82;;
22439;SDS011;11387;51.612;7.210;2023-08-06T11:56:26;9.93;;;6.70;;
22439;SDS011;11387;51.612;7.210;2023-08-06T11:58:56;11.27;;;7.18;;
22439;SDS011;11387;51.612;7.210;2023-08-06T12:01:25;10.43;;;8.30;;
22439;SDS011;11387;51.612;7.210;2023-08-06T12:03:58;10.10;;;8.80;;
22439;SDS011;11387;51.612;7.210;2023-08-06T12:06:27;11.82;;;9.70;;
22439;SDS011;11387;51.612;7.210;2023-08-06T12:08:56;13.38;;;9.85;;
22439;SDS011;11387;51.612;7.210;2023-08-06T12:11:26;14.98;;;10.07;;
22439;SDS011;11387;51.612;7.210;2023-08-06T12:13:55;11.85;;;10.63;;
22439;SDS011;11387;51.612;7.210;2023-08-06T12:16:24;14.27;;;10.82;;
22439;SDS011;11387;51.612;7.210;2023-08-06T12:18:53;13.38;;;11.93;;
22439;SDS011;11387;51.612;7.210;2023-08-06T12:21:21;14.05;;;12.55;;
22439;SDS011;11387;51.612;7.210;2023-08-06T12:23:50;15.98;;;13.05;;
22439;SDS011;11387;51.612;7.210;2023-08-06T12:26:19;12.70;;;11.18;;
22439;SDS011;11387;51.612;7.210;2023-08-06T12:28:49;13.90;;;10.30;;
22439;SDS011;11387;51.612;7.210;2023-08-06T12:31:18;10.63;;;9.60;;
22439;SDS011;11387;51.612;7.210;2023-08-06T12:33:47;12.20;;;9.45;;
22439;SDS011;11387;51.612;7.210;2023-08-06T12:36:18;12.23;;;10.00;;
22439;SDS011;11387;51.612;7.210;2023-08-06T12:38:52;8.02;;;7.20;;
22439;SDS011;11387;51.612;7.210;2023-08-06T12:41:22;8.07;;;5.72;;
22439;SDS011;11387;51.612;7.210;2023-08-06T12:43:55;6.63;;;5.35;;
22439;SDS011;11387;51.612;7.210;2023-08-06T12:46:29;8.55;;;6.10;;
22439;SDS011;11387;51.612;7.210;2023-08-06T12:49:01;7.53;;;4.63;;
22439;SDS011;11387;51.612;7.210;2023-08-06T12:51:32;8.13;;;3.58;;
22439;SDS011;11387;51.612;7.210;2023-08-06T12:54:08;3.60;;;2.30;;
22439;SDS011;11387;51.612;7.210;2023-08-06T12:56:40;5.07;;;2.20;;
22439;SDS011;11387;51.612;7.210;2023-08-06T13:02:02;5.57;;;1.73;;
22439;SDS011;11387;51.612;7.210;2023-08-06T13:04:32;2.58;;;1.55;;
22439;SDS011;11387;51.612;7.210;2023-08-06T13:07:01;4.38;;;1.45;;
22439;SDS011;11387;51.612;7.210;2023-08-06T13:09:30;3.10;;;1.40;;
22439;SDS011;11387;51.612;7.210;2023-08-06T13:12:00;6.35;;;1.42;;
22439;SDS011;11387;51.612;7.210;2023-08-06T13:14:36;2.05;;;1.02;;
22439;SDS011;11387;51.612;7.210;2023-08-06T13:17:06;2.75;;;0.98;;
22439;SDS011;11387;51.612;7.210;2023-08-06T13:19:36;1.90;;;0.93;;
22439;SDS011;11387;51.612;7.210;2023-08-06T13:22:07;2.00;;;0.98;;
22439;SDS011;11387;51.612;7.210;2023-08-06T13:24:38;2.38;;;1.13;;
22439;SDS011;11387;51.612;7.210;2023-08-06T13:27:08;1.60;;;0.90;;
22439;SDS011;11387;51.612;7.210;2023-08-06T13:29:40;4.97;;;1.40;;
22439;SDS011;11387;51.612;7.210;2023-08-06T13:32:10;2.13;;;1.23;;
22439;SDS011;11387;51.612;7.210;2023-08-06T13:34:41;2.38;;;1.30;;
22439;SDS011;11387;51.612;7.210;2023-08-06T13:37:09;4.10;;;1.08;;
22439;SDS011;11387;51.612;7.210;2023-08-06T13:39:38;4.03;;;1.20;;
22439;SDS011;11387;51.612;7.210;2023-08-06T13:42:07;2.25;;;0.90;;
22439;SDS011;11387;51.612;7.210;2023-08-06T13:44:36;2.75;;;1.10;;
22439;SDS011;11387;51.612;7.210;2023-08-06T13:47:06;3.95;;;1.63;;
22439;SDS011;11387;51.612;7.210;2023-08-06T13:49:39;2.55;;;1.55;;
22439;SDS011;11387;51.612;7.210;2023-08-06T13:52:08;6.82;;;3.03;;
22439;SDS011;11387;51.612;7.210;2023-08-06T13:54:49;5.85;;;2.78;;
22439;SDS011;11387;51.612;7.210;2023-08-06T13:57:19;4.38;;;2.80;;
22439;SDS011;11387;51.612;7.210;2023-08-06T13:59:49;4.95;;;2.55;;
22439;SDS011;11387;51.612;7.210;2023-08-06T14:02:19;5.60;;;3.42;;
22439;SDS011;11387;51.612;7.210;2023-08-06T14:04:47;2.78;;;1.77;;
22439;SDS011;11387;51.612;7.210;2023-08-06T14:07:16;4.38;;;1.60;;
22439;SDS011;11387;51.612;7.210;2023-08-06T14:09:46;3.15;;;1.90;;
22439;SDS011;11387;51.612;7.210;2023-08-06T14:12:31;4.60;;;1.45;;
22439;SDS011;11387;51.612;7.210;2023-08-06T14:15:02;2.80;;;1.33;;
22439;SDS011;11387;51.612;7.210;2023-08-06T14:17:34;2.63;;;1.70;;
22439;SDS011;11387;51.612;7.210;2023-08-06T14:20:05;4.25;;;1.80;;
22439;SDS011;11387;51.612;7.210;2023-08-06T14:22:39;3.25;;;1.70;;
22439;SDS011;11387;51.612;7.210;2023-08-06T14:25:09;2.60;;;1.63;;
22439;SDS011;11387;51.612;7.210;2023-08-06T14:27:39;3.67;;;1.52;;
22439;SDS011;11387;51.612;7.210;2023-08-06T14:30:10;2.22;;;1.20;;
22439;SDS011;11387;51.612;7.210;2023-08-06T14:32:42;3.17;;;1.70;;
22439;SDS011;11387;51.612;7.210;2023-08-06T14:35:11;3.08;;;1.10;;
22439;SDS011;11387;51.612;7.210;2023-08-06T14:37:42;1.85;;;1.00;;
22439;SDS011;11387;51.612;7.210;2023-08-06T14:40:13;5.53;;;1.10;;
22439;SDS011;11387;51.612;7.210;2023-08-06T14:42:57;3.10;;;1.30;;
22439;SDS011;11387;51.612;7.210;2023-08-06T14:45:28;2.63;;;1.30;;
22439;SDS011;11387;51.612;7.210;2023-08-06T14:48:02;2.90;;;1.25;;
22439;SDS011;11387;51.612;7.210;2023-08-06T14:50:32;6.10;;;1.77;;
22439;SDS011;11387;51.612;7.210;2023-08-06T14:53:01;3.13;;;1.50;;
22439;SDS011;11387;51.612;7.210;2023-08-06T14:55:32;3.33;;;1.30;;
22439;SDS011;11387;51.612;7.210;2023-08-06T14:58:00;2.63;;;1.30;;
22439;SDS011;11387;51.612;7.210;2023-08-06T15:00:29;2.45;;;1.40;;
22439;SDS011;11387;51.612;7.210;2023-08-06T15:02:58;2.22;;;1.40;;
22439;SDS011;11387;51.612;7.210;2023-08-06T15:05:28;3.30;;;1.45;;
22439;SDS011;11387;51.612;7.210;2023-08-06T15:07:57;1.98;;;1.38;;